sensor_id;sensor_type;location;lat;lon;timestamp;P1;durP1;ratioP1;P2;durP2;ratioP2
29402;SDS011;16382;59.942;30.472;2023-11-19T17:55:47;15.40;;;8.05;;
29402;SDS011;16382;59.942;30.472;2023-11-19T17:58:15;17.17;;;8.27;;
29402;SDS011;16382;59.942;30.472;2023-11-19T18:00:43;17.02;;;8.52;;
29402;SDS011;16382;59.942;30.472;2023-11-19T18:03:11;17.45;;;8.23;;
29402;SDS011;16382;59.942;30.472;2023-11-19T18:05:39;12.85;;;7.78;;
29402;SDS011;16382;59.942;30.472;2023-11-19T18:08:21;14.25;;;8.32;;
29402;SDS011;16382;59.942;30.472;2023-11-19T18:10:55;20.20;;;8.32;;
29402;SDS011;16382;59.942;30.472;2023-11-19T18:13:22;16.40;;;8.27;;
29402;SDS011;16382;59.942;30.472;2023-11-19T18:15:50;18.65;;;9.05;;
29402;SDS011;16382;59.942;30.472;2023-11-19T18:18:19;19.25;;;8.98;;
29402;SDS011;16382;59.942;30.472;2023-11-19T18:20:46;18.73;;;9.20;;
29402;SDS011;16382;59.942;30.472;2023-11-19T18:23:15;21.58;;;9.60;;
29402;SDS011;16382;59.942;30.472;2023-11-19T18:25:45;16.77;;;8.75;;
29402;SDS011;16382;59.942;30.472;2023-11-19T18:28:16;13.10;;;7.78;;
29402;SDS011;16382;59.942;30.472;2023-11-19T18:30:44;20.67;;;9.68;;
29402;SDS011;16382;59.942;30.472;2023-11-19T18:33:12;18.77;;;8.52;;
29402;SDS011;16382;59.942;30.472;2023-11-19T18:35:40;19.23;;;9.43;;
29402;SDS011;16382;59.942;30.472;2023-11-19T18:38:09;17.60;;;8.13;;
29402;SDS011;16382;59.942;30.472;2023-11-19T18:40:37;15.98;;;8.98;;
29402;SDS011;16382;59.942;30.472;2023-11-19T18:43:05;18.40;;;9.00;;
29402;SDS011;16382;59.942;30.472;2023-11-19T18:45:34;15.98;;;9.18;;
29402;SDS011;16382;59.942;30.472;2023-11-19T18:48:02;16.83;;;9.00;;
29402;SDS011;16382;59.942;30.472;2023-11-19T18:50:31;17.77;;;8.63;;
29402;SDS011;16382;59.942;30.472;2023-11-19T18:52:59;16.98;;;8.38;;
29402;SDS011;16382;59.942;30.472;2023-11-19T18:55:28;17.80;;;9.85;;
29402;SDS011;16382;59.942;30.472;2023-11-19T18:57:56;19.17;;;8.40;;
29402;SDS011;16382;59.942;30.472;2023-11-19T19:00:23;22.50;;;9.68;;
29402;SDS011;16382;59.942;30.472;2023-11-19T19:02:53;17.33;;;9.00;;
29402;SDS011;16382;59.942;30.472;2023-11-19T19:05:20;17.45;;;9.00;;
29402;SDS011;16382;59.942;30.472;2023-11-19T19:07:49;20.33;;;8.65;;
29402;SDS011;16382;59.942;30.472;2023-11-19T19:10:20;17.40;;;9.68;;
29402;SDS011;16382;59.942;30.472;2023-11-19T19:12:48;26.33;;;9.70;;
29402;SDS011;16382;59.942;30.472;2023-11-19T19:15:18;20.17;;;8.40;;
29402;SDS011;16382;59.942;30.472;2023-11-19T19:18:01;12.93;;;7.13;;
29402;SDS011;16382;59.942;30.472;2023-11-19T19:21:48;20.27;;;7.82;;
29402;SDS011;16382;59.942;30.472;2023-11-19T19:24:19;15.88;;;8.15;;
29402;SDS011;16382;59.942;30.472;2023-11-19T19:26:52;16.88;;;7.25;;
29402;SDS011;16382;59.942;30.472;2023-11-19T19:29:25;13.65;;;8.30;;
29402;SDS011;16382;59.942;30.472;2023-11-19T19:32:11;16.45;;;6.93;;
29402;SDS011;16382;59.942;30.472;2023-11-19T19:35:08;18.55;;;7.72;;
29402;SDS011;16382;59.942;30.472;2023-11-19T19:37:48;14.38;;;7.18;;
29402;SDS011;16382;59.942;30.472;2023-11-19T19:40:20;13.57;;;7.13;;
29402;SDS011;16382;59.942;30.472;2023-11-19T19:42:49;16.33;;;7.30;;
29402;SDS011;16382;59.942;30.472;2023-11-19T19:45:17;14.82;;;7.00;;
29402;SDS011;16382;59.942;30.472;2023-11-19T19:47:45;15.95;;;7.18;;
29402;SDS011;16382;59.942;30.472;2023-11-19T19:50:14;15.95;;;8.13;;
29402;SDS011;16382;59.942;30.472;2023-11-19T19:52:42;11.23;;;6.45;;
29402;SDS011;16382;59.942;30.472;2023-11-19T19:55:10;9.43;;;5.78;;
29402;SDS011;16382;59.942;30.472;2023-11-19T19:57:39;10.98;;;7.00;;
29402;SDS011;16382;59.942;30.472;2023-11-19T20:00:07;8.15;;;5.18;;
29402;SDS011;16382;59.942;30.472;2023-11-19T20:02:39;10.10;;;5.50;;
29402;SDS011;16382;59.942;30.472;2023-11-19T20:05:07;13.13;;;6.55;;
29402;SDS011;16382;59.942;30.472;2023-11-19T20:07:39;9.95;;;6.40;;
29402;SDS011;16382;59.942;30.472;2023-11-19T20:10:09;9.10;;;6.28;;
29402;SDS011;16382;59.942;30.472;2023-11-19T20:12:38;8.85;;;6.25;;
29402;SDS011;16382;59.942;30.472;2023-11-19T20:15:06;12.57;;;6.95;;
29402;SDS011;16382;59.942;30.472;2023-11-19T20:17:37;10.02;;;5.70;;
29402;SDS011;16382;59.942;30.472;2023-11-19T20:20:06;11.63;;;6.20;;
29402;SDS011;16382;59.942;30.472;2023-11-19T20:22:39;12.07;;;5.75;;
29402;SDS011;16382;59.942;30.472;2023-11-19T20:25:07;9.20;;;5.82;;
29402;SDS011;16382;59.942;30.472;2023-11-19T20:27:36;9.75;;;5.35;;
29402;SDS011;16382;59.942;30.472;2023-11-19T20:30:09;7.67;;;4.90;;
29402;SDS011;16382;59.942;30.472;2023-11-19T20:32:39;7.50;;;4.93;;
29402;SDS011;16382;59.942;30.472;2023-11-19T20:35:16;6.63;;;4.85;;
29402;SDS011;16382;59.942;30.472;2023-11-19T20:37:46;8.10;;;5.05;;
29402;SDS011;16382;59.942;30.472;2023-11-19T20:40:14;8.32;;;4.97;;
29402;SDS011;16382;59.942;30.472;2023-11-19T20:42:44;7.50;;;4.55;;
29402;SDS011;16382;59.942;30.472;2023-11-19T20:45:12;8.90;;;4.38;;
29402;SDS011;16382;59.942;30.472;2023-11-19T20:47:41;8.38;;;4.72;;
29402;SDS011;16382;59.942;30.472;2023-11-19T20:50:09;6.05;;;3.83;;
29402;SDS011;16382;59.942;30.472;2023-11-19T20:52:38;7.03;;;4.32;;
29402;SDS011;16382;59.942;30.472;2023-11-19T20:55:08;4.72;;;3.63;;
29402;SDS011;16382;59.942;30.472;2023-11-19T20:57:36;10.32;;;4.38;;
29402;SDS011;16382;59.942;30.472;2023-11-19T21:00:05;9.25;;;4.60;;
29402;SDS011;16382;59.942;30.472;2023-11-19T21:02:39;7.80;;;4.18;;
29402;SDS011;16382;59.942;30.472;2023-11-19T21:05:07;7.28;;;4.40;;
29402;SDS011;16382;59.942;30.472;2023-11-19T21:07:36;6.80;;;4.05;;
29402;SDS011;16382;59.942;30.472;2023-11-19T21:10:15;7.05;;;4.18;;
29402;SDS011;16382;59.942;30.472;2023-11-19T21:12:48;5.40;;;4.25;;
29402;SDS011;16382;59.942;30.472;2023-11-19T21:15:18;5.68;;;4.50;;
29402;SDS011;16382;59.942;30.472;2023-11-19T21:17:46;8.95;;;4.78;;
29402;SDS011;16382;59.942;30.472;2023-11-19T21:20:13;9.15;;;5.15;;
29402;SDS011;16382;59.942;30.472;2023-11-19T21:22:42;8.70;;;4.47;;
29402;SDS011;16382;59.942;30.472;2023-11-19T21:25:12;9.13;;;4.55;;
29402;SDS011;16382;59.942;30.472;2023-11-19T21:27:41;6.10;;;3.97;;
29402;SDS011;16382;59.942;30.472;2023-11-19T21:30:11;6.35;;;4.18;;
29402;SDS011;16382;59.942;30.472;2023-11-19T21:32:41;6.03;;;3.88;;
29402;SDS011;16382;59.942;30.472;2023-11-19T21:35:09;6.93;;;4.35;;
29402;SDS011;16382;59.942;30.472;2023-11-19T21:37:36;5.85;;;4.22;;
29402;SDS011;16382;59.942;30.472;2023-11-19T21:40:04;5.57;;;4.00;;
29402;SDS011;16382;59.942;30.472;2023-11-19T21:42:43;6.60;;;4.32;;
29402;SDS011;16382;59.942;30.472;2023-11-19T21:45:11;10.93;;;5.18;;
29402;SDS011;16382;59.942;30.472;2023-11-19T21:47:39;11.98;;;4.68;;
29402;SDS011;16382;59.942;30.472;2023-11-19T21:50:07;8.13;;;4.45;;
29402;SDS011;16382;59.942;30.472;2023-11-19T21:52:36;7.28;;;5.13;;
29402;SDS011;16382;59.942;30.472;2023-11-19T21:55:04;8.95;;;4.35;;
29402;SDS011;16382;59.942;30.472;2023-11-19T21:57:36;7.90;;;4.88;;
29402;SDS011;16382;59.942;30.472;2023-11-19T22:00:08;6.95;;;4.45;;
29402;SDS011;16382;59.942;30.472;2023-11-19T22:02:41;6.97;;;4.55;;
29402;SDS011;16382;59.942;30.472;2023-11-19T22:05:08;8.07;;;4.57;;
29402;SDS011;16382;59.942;30.472;2023-11-19T22:07:39;4.93;;;4.07;;
29402;SDS011;16382;59.942;30.472;2023-11-19T22:10:08;7.57;;;4.13;;
29402;SDS011;16382;59.942;30.472;2023-11-19T22:12:35;6.18;;;4.78;;
29402;SDS011;16382;59.942;30.472;2023-11-19T22:15:07;6.55;;;4.57;;
29402;SDS011;16382;59.942;30.472;2023-11-19T22:17:36;6.57;;;4.55;;
29402;SDS011;16382;59.942;30.472;2023-11-19T22:20:04;7.18;;;4.63;;
29402;SDS011;16382;59.942;30.472;2023-11-19T22:22:35;6.88;;;4.85;;
29402;SDS011;16382;59.942;30.472;2023-11-19T22:25:06;9.15;;;4.28;;
29402;SDS011;16382;59.942;30.472;2023-11-19T22:27:35;7.60;;;3.70;;
29402;SDS011;16382;59.942;30.472;2023-11-19T22:30:03;6.68;;;4.78;;
29402;SDS011;16382;59.942;30.472;2023-11-19T22:32:37;8.10;;;4.28;;
29402;SDS011;16382;59.942;30.472;2023-11-19T22:35:05;6.15;;;4.07;;
29402;SDS011;16382;59.942;30.472;2023-11-19T22:37:33;6.25;;;4.32;;
29402;SDS011;16382;59.942;30.472;2023-11-19T22:40:01;5.88;;;4.10;;
29402;SDS011;16382;59.942;30.472;2023-11-19T22:42:29;6.75;;;4.13;;
29402;SDS011;16382;59.942;30.472;2023-11-19T22:44:58;8.70;;;4.28;;
29402;SDS011;16382;59.942;30.472;2023-11-19T22:47:27;6.10;;;3.88;;
29402;SDS011;16382;59.942;30.472;2023-11-19T22:49:55;8.18;;;4.57;;
29402;SDS011;16382;59.942;30.472;2023-11-19T22:52:23;6.72;;;4.18;;
29402;SDS011;16382;59.942;30.472;2023-11-19T22:54:51;6.78;;;4.05;;
29402;SDS011;16382;59.942;30.472;2023-11-19T22:57:18;6.20;;;4.05;;
29402;SDS011;16382;59.942;30.472;2023-11-19T22:59:46;6.93;;;4.38;;
29402;SDS011;16382;59.942;30.472;2023-11-19T23:02:14;5.25;;;4.03;;
29402;SDS011;16382;59.942;30.472;2023-11-19T23:04:42;6.70;;;4.15;;
29402;SDS011;16382;59.942;30.472;2023-11-19T23:07:10;6.38;;;4.28;;
29402;SDS011;16382;59.942;30.472;2023-11-19T23:09:39;5.00;;;4.25;;
29402;SDS011;16382;59.942;30.472;2023-11-19T23:12:08;7.20;;;4.30;;
29402;SDS011;16382;59.942;30.472;2023-11-19T23:14:36;5.78;;;4.03;;
29402;SDS011;16382;59.942;30.472;2023-11-19T23:17:04;6.05;;;4.28;;
29402;SDS011;16382;59.942;30.472;2023-11-19T23:19:32;6.53;;;3.92;;
29402;SDS011;16382;59.942;30.472;2023-11-19T23:22:02;5.05;;;4.10;;
29402;SDS011;16382;59.942;30.472;2023-11-19T23:24:30;8.00;;;4.75;;
29402;SDS011;16382;59.942;30.472;2023-11-19T23:26:58;11.82;;;4.40;;
29402;SDS011;16382;59.942;30.472;2023-11-19T23:29:26;8.35;;;4.65;;
29402;SDS011;16382;59.942;30.472;2023-11-19T23:31:54;7.90;;;4.85;;
29402;SDS011;16382;59.942;30.472;2023-11-19T23:34:21;7.18;;;4.65;;
29402;SDS011;16382;59.942;30.472;2023-11-19T23:36:49;8.63;;;4.43;;
29402;SDS011;16382;59.942;30.472;2023-11-19T23:39:18;8.05;;;4.80;;
29402;SDS011;16382;59.942;30.472;2023-11-19T23:41:45;5.40;;;4.43;;
29402;SDS011;16382;59.942;30.472;2023-11-19T23:44:13;9.77;;;4.25;;
29402;SDS011;16382;59.942;30.472;2023-11-19T23:46:42;9.57;;;4.43;;
29402;SDS011;16382;59.942;30.472;2023-11-19T23:49:10;7.30;;;4.43;;
29402;SDS011;16382;59.942;30.472;2023-11-19T23:51:37;6.72;;;4.53;;
29402;SDS011;16382;59.942;30.472;2023-11-19T23:54:05;7.30;;;3.90;;
29402;SDS011;16382;59.942;30.472;2023-11-19T23:56:35;8.45;;;4.72;;
29402;SDS011;16382;59.942;30.472;2023-11-19T23:59:02;6.65;;;4.70;;
